Midland International Airport
KMAF : now visible

Airfield :











YOU CAN JOIN US ON...

 
LOGIN :

Register | Disclaimer

   EN    FR    IT 

 









Legend :    VFR   Marginal VFR   IFR   Intensive IFR   Very Intensive IFR
Visi :
Ceiling :
>= 8 km
>= 3000ft
5 to 8 km
1000 to 3000 ft
1500m to 5 km
500 to 1000 ft
800 to 1500m
200 to 500 ft
< 800m
< 200 ft
Symbols :   Thunderstorms  Fog  Heavy snow  Heavy precipitations  Wind > 20 kt






- Airport Elevation : 2871 ft
- IATA code : MAF


KMAF - Midland International

CURRENT METAR :
  • 250353Z 10006KT 10SM CLR 25/M03 A2984 RMK AO2 SLP053 T02501033 $

EXPIRED METARs :
  • 250253Z 09008KT 10SM CLR 26/M03 A2982 RMK AO2 SLP049 T02611033 53005 $
  • 250153Z 09006KT 10SM CLR 29/M04 A2982 RMK AO2 SLP047 T02891044 $
  • 250053Z 05006KT 10SM CLR 32/M04 A2981 RMK AO2 SLP042 T03221044 $
  • 242353Z 06006KT 10SM CLR 33/M05 A2980 RMK AO2 SLP044 T03331050 10339 20300 56015 $

TAF KMAF
Valid from the 25 at 03:00 until the 26 at 00:00 UTC


250303Z 2503/2524 11010KT P6SM FEW250
FM251600 22015G21KT P6SM FEW250
KZFW FIR / North America



MET'MAP, your aeronautical weather chart ! - Copyright ORBIFLY December 2007 - Disclaimer

ORBIFLY MET'MAP TEAM :

Programming & Development : Alexandra Zaïnal
Original concept : Baudouin d'Aumeries
Technical & hardware support : Manuel Goepfert
Assistance : Marc-Olivier Méhu




SOURCES & CREDITS :

   NOAA       Earth
Advisory